Ladd AAF Airfield Fairbanks/Ft Wainwright US
ICAO: PAFB
IATA:
Category: Medium
Scheduled Services:

Elevation: 454 ft
TransAlt. 18000 ft.

Airport Communications:
FAIRBANKS APP:125.35
ATIS:134.25
CTAF:125
FAIRBANKS DEP:125.35
FAIRBANKS RDO:25.54
GND:121.7
MEDIVAC OPS:142.35
BASE OPS:118.9
PMSV METRO:128.8
TWR:125

PAFB Zoom In..

Runways:

(A) RW 07L length 8575 ft width 150 ft
---- / hdg 68

(B) RW 07R length 7280 ft width 75 ft
---- / hdg 68

(C) RW 25L length 7280 ft width 75 ft
---- / hdg 248

(D) RW 25R length 8575 ft width 150 ft
---- / hdg 248

Location; PAFB
Day. 20 / Time. 19.58 Zulu
* Altimeter: 30.23
* Temperature: 18° c. 64.4°f.
* Wind from: 240° Speed 05 kn.
Dewpoint: 10° c.
Visibility: 10 Statute Miles.
Clouds: Broken 9500 ft.

PAFB 201958Z AUTO 24005KT 10SM BKN095 18/10 A3023 RMK AO2 SLP239 T01800098


Wind From 240°
Speed 05 kn.

 
 
jpsmedia.com for Web Design worldairports.se 2018   terms of use